Latest Weather Observations for Yeppoon

IDQ60801

Issued at 7:02 am EST Sunday 22 October 2017 (issued every 30 minutes, with the page automatically refreshed every 10 minutes)

About weather observations | Map of weather stations | Latest weather observations for QLD | Other Formats
Station Details ID: 033294 Name: YEPPOON THE ESPLANADE Lat: -23.14 Lon: 150.75 Height: 5.5 m
Data from the previous 72 hours. | See also: Recent months at Yeppoon
Date/Time
EST
Temp
°C
App
Temp
°C
Dew
Point
°C
Rel
Hum
%
Delta-T
°C
Wind Press
QNH
hPa
Press
MSL
hPa
Rain since
9am
mm
Dir  Spd
km/h
Gust
km/h
Spd
kts
Gust
kts
22/07:00am 20.0 20.0 18.1 89 1.2 S 15 20 8 11 1012.7 1012.7 2.2
22/06:30am 19.6 20.1 18.3 92 0.8 S 13 17 7 9 1012.4 1012.4 2.2
22/06:00am 19.4 20.2 18.2 93 0.7 SSW 11 15 6 8 1012.2 1012.2 2.0
22/05:30am 19.5 21.3 18.7 95 0.5 WSW 7 9 4 5 1011.9 1011.9 2.0
22/05:00am 19.4 20.8 18.6 95 0.5 WSW 9 13 5 7 1011.7 1011.7 2.0
22/04:30am 19.3 21.0 18.5 95 0.5 WSW 7 9 4 5 1011.4 1011.4 2.0
22/04:00am 19.3 20.2 18.5 95 0.5 WSW 11 15 6 8 1011.4 1011.4 2.0
22/03:30am 19.6 20.7 18.8 95 0.5 WSW 11 15 6 8 1011.1 1011.1 2.0
22/03:00am 19.7 22.1 18.9 95 0.5 WSW 4 7 2 4 1011.1 1011.1 2.0
22/02:30am 19.8 21.3 19.0 95 0.5 WSW 9 13 5 7 1011.2 1011.2 2.0
22/02:00am 19.9 21.9 19.1 95 0.5 WSW 7 9 4 5 1011.5 1011.5 2.0
22/01:30am 20.0 21.6 19.2 95 0.5 WSW 9 11 5 6 1011.8 1011.8 2.0
22/01:00am 20.1 21.8 19.3 95 0.5 WSW 9 11 5 6 1011.9 1011.9 2.0
22/12:30am 20.1 21.7 19.1 94 0.6 WSW 9 13 5 7 1012.0 1012.0 2.0
22/12:00am 20.1 22.1 19.1 94 0.6 WSW 7 9 4 5 1012.3 1012.3 2.0
 
Date/Time
EST
Temp
°C
App
Temp
°C
Dew
Point
°C
Rel
Hum
%
Delta-T
°C
Wind Press
QNH
hPa
Press
MSL
hPa
Rain since
9am
mm
Dir  Spd
km/h
Gust
km/h
Spd
kts
Gust
kts
21/11:30pm 20.3 22.4 19.3 94 0.6 WSW 7 9 4 5 1012.7 1012.7 2.0
21/11:00pm 20.4 22.5 19.4 94 0.6 WSW 7 9 4 5 1013.0 1013.0 2.0
21/10:30pm 20.5 23.6 19.5 94 0.6 WSW 2 7 1 4 1013.2 1013.2 2.0
21/10:00pm 20.5 22.8 19.5 94 0.6 WSW 6 7 3 4 1013.3 1013.3 2.0
21/09:30pm 20.6 23.7 19.4 93 0.8 WSW 2 7 1 4 1013.4 1013.4 2.0
21/09:00pm 20.6 22.7 19.4 93 0.8 WSW 7 9 4 5 1013.6 1013.6 2.0
21/08:30pm 20.7 23.0 19.4 92 0.8 WSW 6 7 3 4 1013.4 1013.4 2.0
21/08:00pm 20.8 24.2 19.3 91 0.9 CALM 0 2 0 1 1013.2 1013.2 2.0
21/07:30pm 20.8 23.0 19.3 91 0.9 WSW 6 7 3 4 1012.8 1012.8 2.0
21/07:00pm 21.0 23.2 19.7 92 0.8 WSW 7 9 4 5 1012.9 1012.9 2.0
21/06:30pm 21.1 23.5 19.7 92 0.9 WSW 6 7 3 4 1012.7 1012.7 2.0
21/06:00pm 21.1 23.9 19.6 91 1.0 WSW 4 7 2 4 1012.5 1012.5 2.0
21/05:30pm 21.2 23.4 19.7 91 1.0 WSW 7 9 4 5 1012.2 1012.2 2.0
21/05:00pm 21.2 23.0 19.5 90 1.1 WSW 9 11 5 6 1012.2 1012.2 2.0
21/04:30pm 21.2 23.0 19.5 90 1.1 WSW 9 13 5 7 1012.1 1012.1 1.8
21/04:00pm 21.4 23.6 19.7 90 1.1 SW 7 9 4 5 1012.2 1012.2 1.8
21/03:30pm 21.6 23.1 19.7 89 1.2 WSW 11 17 6 9 1012.5 1012.5 1.8
21/03:00pm 22.1 25.0 19.1 83 1.9 NNE 2 7 1 4 1012.0 1012.0 1.0
21/02:30pm 22.3 24.9 19.3 83 1.9 NNE 4 6 2 3 1012.2 1012.2 0.8
21/02:00pm 22.0 23.5 18.8 82 2.0 N 9 13 5 7 1012.0 1012.0 0.6
21/01:30pm 22.0 24.0 19.2 84 1.8 WSW 7 15 4 8 1012.3 1012.3 0.2
21/01:00pm 22.3 23.3 18.7 80 2.3 WSW 11 17 6 9 1013.5 1013.5 0.0
21/12:30pm 24.3 27.0 18.7 71 3.6 W 2 7 1 4 1013.9 1013.9 0.0
21/12:00pm 24.2 25.6 17.7 67 4.1 W 7 9 4 5 1014.2 1014.2 0.0
21/11:30am 24.5 25.8 18.4 69 3.9 W 9 11 5 6 1014.2 1014.2 0.0
21/11:00am 24.5 26.0 17.7 66 4.2 W 6 7 3 4 1014.7 1014.7 0.0
21/10:30am 24.4 25.8 17.4 65 4.4 W 6 9 3 5 1015.0 1015.0 0.0
21/10:00am 23.8 25.0 18.2 71 3.5 W 9 13 5 7 1015.2 1015.2 0.0
21/09:30am 23.2 23.7 17.4 70 3.6 W 11 15 6 8 1015.4 1015.4 0.0
21/09:00am 24.0 25.0 17.7 68 3.9 NNW 9 15 5 8 1015.4 1015.4 0.0
21/08:30am 24.6 26.3 18.1 67 4.1 WNW 6 9 3 5 1015.5 1015.5 0.0
21/08:00am 24.3 25.8 18.0 68 3.9 WNW 7 9 4 5 1015.2 1015.2 0.0
21/07:30am 23.1 25.1 19.1 78 2.5 WNW 7 11 4 6 1015.3 1015.3 0.0
21/07:00am 22.3 24.1 18.7 80 2.3 WNW 7 11 4 6 1015.2 1015.2 0.0
21/06:30am 21.6 23.0 18.6 83 1.9 WNW 9 11 5 6 1015.1 1015.1 0.0
21/06:00am 21.1 22.2 18.1 83 1.9 NNE 9 11 5 6 1014.7 1014.7 0.0
21/05:30am 21.8 23.4 17.8 78 2.5 NNE 6 11 3 6 1014.6 1014.6 0.0
21/05:00am 23.2 23.5 17.9 72 3.3 NE 13 17 7 9 1014.4 1014.4 0.0
21/04:30am 23.3 23.3 18.2 73 3.2 NE 15 19 8 10 1014.4 1014.4 0.0
21/04:00am 23.1 22.9 18.6 76 2.8 ENE 17 19 9 10 1014.4 1014.4 0.0
21/03:30am 23.2 23.2 18.1 73 3.2 NE 15 20 8 11 1014.3 1014.3 0.0
21/03:00am 23.2 23.2 18.1 73 3.2 ENE 15 17 8 9 1014.4 1014.4 0.0
21/02:30am 23.3 23.1 18.6 75 3.0 ENE 17 20 9 11 1014.7 1014.7 0.0
21/02:00am 23.3 22.6 18.2 73 3.2 ENE 19 22 10 12 1014.9 1014.9 0.0
21/01:30am 23.4 23.2 18.5 74 3.1 ENE 17 20 9 11 1015.3 1015.3 0.0
21/01:00am 23.4 23.0 18.1 72 3.3 ENE 17 20 9 11 1015.5 1015.5 0.0
21/12:30am 23.5 22.3 17.0 67 4.0 ENE 19 22 10 12 1015.7 1015.7 0.0
21/12:00am 23.4 23.0 18.1 72 3.3 ENE 17 20 9 11 1016.1 1016.1 0.0
 
Date/Time
EST
Temp
°C
App
Temp
°C
Dew
Point
°C
Rel
Hum
%
Delta-T
°C
Wind Press
QNH
hPa
Press
MSL
hPa
Rain since
9am
mm
Dir  Spd
km/h
Gust
km/h
Spd
kts
Gust
kts
20/11:30pm 23.4 23.0 18.1 72 3.3 ENE 17 22 9 12 1016.5 1016.5 0.0
20/11:00pm 23.5 23.3 18.6 74 3.1 ENE 17 22 9 12 1016.8 1016.8 0.0
20/10:30pm 23.6 22.7 18.3 72 3.3 NE 20 24 11 13 1017.0 1017.0 0.0
20/10:00pm 23.5 23.0 19.2 77 2.7 NE 20 24 11 13 1017.0 1017.0 0.0
20/09:30pm 23.5 22.9 18.8 75 3.0 ENE 20 26 11 14 1017.0 1017.0 0.0
20/09:00pm 23.7 23.5 19.4 77 2.7 ENE 19 24 10 13 1017.0 1017.0 0.0
20/08:30pm 23.4 22.8 18.9 76 2.9 ENE 20 24 11 13 1017.2 1017.2 0.0
20/08:00pm 23.4 22.5 19.1 77 2.7 ENE 22 26 12 14 1017.1 1017.1 0.0
20/07:30pm 23.5 22.3 19.2 77 2.7 ENE 24 28 13 15 1017.0 1017.0 0.0
20/07:00pm 23.6 22.2 18.9 75 3.0 ENE 24 28 13 15 1016.9 1016.9 0.0
20/06:30pm 23.8 23.2 18.9 74 3.1 ENE 20 26 11 14 1016.8 1016.8 0.0
20/06:00pm 23.8 23.2 18.9 74 3.1 ENE 20 24 11 13 1016.8 1016.8 0.0
20/05:30pm 23.9 23.1 18.1 70 3.6 ENE 19 20 10 11 1016.8 1016.8 0.0
20/05:00pm 24.0 23.3 18.2 70 3.6 ENE 19 24 10 13 1016.8 1016.8 0.0
20/04:30pm 24.1 23.3 18.1 69 3.8 ENE 19 24 10 13 1016.8 1016.8 0.0
20/04:00pm 24.4 24.0 18.1 68 4.0 ENE 17 22 9 12 1016.9 1016.9 0.0
20/03:30pm 24.6 24.2 18.1 67 4.1 ENE 17 20 9 11 1017.1 1017.1 0.0
20/03:00pm 24.5 23.5 18.0 67 4.1 E 20 26 11 14 1017.2 1017.2 0.0
20/02:30pm 24.9 24.4 18.6 68 4.0 ENE 19 24 10 13 1017.3 1017.3 0.0
20/02:00pm 24.9 24.1 18.1 66 4.3 ENE 19 24 10 13 1017.7 1017.7 0.0
20/01:30pm 24.6 23.7 18.3 68 4.0 ENE 20 26 11 14 1018.1 1018.1 0.0
20/01:00pm 24.6 23.5 17.8 66 4.2 E 20 26 11 14 1018.5 1018.5 0.0
20/12:30pm 24.8 23.4 18.0 66 4.3 E 22 26 12 14 1018.8 1018.8 0.0
20/12:00pm 24.1 22.9 19.2 74 3.1 E 24 33 13 18 1019.2 1019.2 0.0
20/11:30am 24.5 23.4 18.7 70 3.7 ESE 22 28 12 15 1019.5 1019.5 0.0
20/11:00am 23.6 22.6 18.0 71 3.5 E 20 28 11 15 1019.7 1019.7 0.0
20/10:30am 24.0 22.6 18.9 73 3.2 E 24 28 13 15 1020.0 1020.0 0.0
20/10:00am 24.0 22.4 18.4 71 3.5 E 24 32 13 17 1019.9 1019.9 0.0
20/09:30am 24.9 23.3 18.4 67 4.1 E 24 28 13 15 1020.0 1020.0 0.0
20/09:00am 24.5 23.2 18.2 68 4.0 E 22 28 12 15 1020.0 1020.0 2.2
20/08:30am 24.1 22.5 18.3 70 3.7 ENE 24 30 13 16 1020.0 1020.0 2.2
20/08:00am 23.6 22.5 18.7 74 3.1 E 22 30 12 16 1019.9 1019.9 2.2
20/07:30am 23.8 23.0 18.4 72 3.4 E 20 24 11 13 1019.6 1019.6 2.0
20/07:00am 23.4 22.5 17.8 71 3.5 ESE 19 26 10 14 1019.6 1019.6 2.0
20/06:30am 23.2 22.5 18.7 76 2.8 E 20 28 11 15 1019.6 1019.6 2.0
20/06:00am 23.2 22.4 18.1 73 3.2 ESE 19 26 10 14 1019.2 1019.2 2.0
20/05:30am 22.7 21.3 18.0 75 2.9 ENE 22 28 12 15 1019.0 1019.0 2.0
20/05:00am 21.9 20.7 17.5 76 2.7 E 20 30 11 16 1018.8 1018.8 2.0
20/04:30am 22.8 20.4 18.3 76 2.8 E 28 33 15 18 1018.5 1018.5 2.0
20/04:00am 22.9 21.1 17.8 73 3.2 ESE 24 32 13 17 1018.2 1018.2 2.0
20/03:30am 23.0 20.7 17.7 72 3.3 ESE 26 37 14 20 1018.1 1018.1 2.0
20/03:00am 22.9 20.4 18.0 74 3.1 E 28 35 15 19 1018.3 1018.3 2.0
20/02:30am 23.0 20.4 17.9 73 3.2 E 28 33 15 18 1018.5 1018.5 2.0
20/02:00am 23.3 20.8 18.0 72 3.3 E 28 35 15 19 1018.7 1018.7 2.0
20/01:30am 23.6 20.3 18.0 71 3.5 E 32 39 17 21 1018.9 1018.9 2.0
20/01:00am 23.3 20.4 18.0 72 3.3 E 30 39 16 21 1019.3 1019.3 2.0
20/12:30am 23.4 20.6 18.1 72 3.3 E 30 41 16 22 1019.7 1019.7 2.0
20/12:04am 23.1 19.8 19.3 79 2.4 E 35 54 19 29 1020.0 1020.0 2.0
20/12:00am 22.8 18.6 18.8 78 2.5 E 39 54 21 29 1020.1 1020.1 2.0
 
Date/Time
EST
Temp
°C
App
Temp
°C
Dew
Point
°C
Rel
Hum
%
Delta-T
°C
Wind Press
QNH
hPa
Press
MSL
hPa
Rain since
9am
mm
Dir  Spd
km/h
Gust
km/h
Spd
kts
Gust
kts
19/11:56pm 22.8 19.0 18.1 75 2.9 E 35 54 19 29 1020.0 1020.0 2.0
19/11:30pm 23.7 20.8 18.8 74 3.1 E 32 43 17 23 1020.7 1020.7 2.0
19/11:00pm 23.6 21.3 18.5 73 3.2 ESE 28 35 15 19 1021.1 1021.1 2.0
19/10:30pm 23.8 20.7 18.4 72 3.4 ESE 32 41 17 22 1021.7 1021.7 2.0
19/10:00pm 23.7 20.4 18.4 72 3.3 E 33 43 18 23 1021.7 1021.7 2.0
19/09:30pm 24.0 21.8 19.5 76 2.9 E 30 39 16 21 1021.6 1021.6 2.0
19/09:00pm 23.8 20.0 18.2 71 3.5 E 35 43 19 23 1021.4 1021.4 2.0
19/08:30pm 23.7 20.3 19.0 75 3.0 ESE 35 43 19 23 1021.3 1021.3 2.0
19/08:00pm 23.8 20.6 18.7 73 3.2 ESE 33 44 18 24 1021.0 1021.0 2.0
19/07:30pm 23.8 20.4 19.1 75 3.0 ESE 35 44 19 24 1020.8 1020.8 2.0
19/07:00pm 23.9 20.3 18.5 72 3.4 ESE 35 44 19 24 1020.6 1020.6 2.0
19/06:30pm 23.6 20.6 18.7 74 3.1 E 32 43 17 23 1020.5 1020.5 2.0
19/06:00pm 23.4 20.7 18.5 74 3.1 ESE 30 44 16 24 1020.2 1020.2 2.0
19/05:30pm 23.9 20.8 18.8 73 3.2 E 33 43 18 23 1020.1 1020.1 2.0
19/05:00pm 23.2 22.0 19.2 78 2.5 ESE 24 35 13 19 1019.8 1019.8 2.0
19/04:34pm 23.2 19.7 18.7 76 2.8 E 35 54 19 29 1019.6 1019.6 2.0
19/04:30pm 22.8 18.5 17.9 74 3.1 E 37 54 20 29 1019.5 1019.5 2.0
19/04:29pm 23.1 19.5 18.6 76 2.8 E 35 54 19 29 1019.6 1019.6 2.0
19/04:00pm 23.8 22.1 19.9 79 2.5 E 28 37 15 20 1019.5 1019.5 2.0
19/03:30pm 22.3 20.5 19.5 84 1.8 ESE 28 39 15 21 1019.7 1019.7 2.0
19/03:08pm 23.0 21.7 20.7 87 1.5 ESE 28 48 15 26 1019.5 1019.5 2.0
19/03:00pm 22.9 21.9 20.4 86 1.6 ESE 26 43 14 23 1019.6 1019.6 2.0
19/02:30pm 23.3 21.4 20.2 83 2.0 ESE 30 44 16 24 1019.6 1019.6 2.0
19/02:04pm 22.6 20.7 19.4 82 2.0 ESE 28 46 15 25 1019.8 1019.8 0.8
19/02:00pm 23.6 23.0 19.7 79 2.5 ESE 22 46 12 25 1019.8 1019.8 0.4
19/01:44pm 23.6 20.9 19.7 79 2.5 ESE 33 52 18 28 1019.9 1019.9 0.4
19/01:30pm 24.3 21.7 19.8 76 2.9 ESE 33 43 18 23 1019.8 1019.8 0.4
19/01:00pm 24.2 21.7 20.1 78 2.6 E 33 44 18 24 1020.0 1020.0 0.4
19/12:30pm 23.8 21.7 20.5 82 2.1 ESE 32 43 17 23 1020.2 1020.2 0.4
19/12:00pm 23.4 21.1 20.5 84 1.9 ESE 33 48 18 26 1020.4 1020.4 0.2
19/11:30am 24.8 22.2 19.8 74 3.2 ESE 33 46 18 25 1020.1 1020.1 0.0
19/11:00am 23.2 19.5 20.0 82 2.1 E 39 54 21 29 1020.2 1020.2 0.0
19/10:47am 24.1 20.2 20.4 80 2.4 E 41 59 22 32 1020.2 1020.2 0.0
19/10:30am 24.6 21.3 20.1 76 2.9 ESE 37 46 20 25 1020.2 1020.2 0.0
19/10:00am 24.3 21.9 20.4 79 2.5 ESE 33 44 18 24 1020.5 1020.5 0.0
19/09:34am 23.9 21.7 20.4 81 2.3 ESE 32 50 17 27 1020.4 1020.4 0.0
19/09:30am 24.0 21.8 20.7 82 2.2 ESE 33 46 18 25 1020.5 1020.5 0.0
19/09:00am 23.2 20.4 21.1 88 1.4 ESE 37 48 20 26 1020.5 1020.5 1.2
19/08:30am 24.6 21.9 20.5 78 2.7 ESE 35 46 19 25 1020.5 1020.5 1.2
19/08:00am 24.2 21.2 19.9 77 2.8 ESE 35 46 19 25 1020.6 1020.6 1.2
19/07:30am 24.1 20.5 20.2 79 2.5 ESE 39 48 21 26 1020.4 1020.4 1.2

Other Formats:

Comma delimited format used in spreadsheet applications
http://www.bom.gov.au/fwo/IDQ60801/IDQ60801.94373.axf

JavaScript Object Notation format (JSON) in row-major order
http://www.bom.gov.au/fwo/IDQ60801/IDQ60801.94373.json